Time;durP1;ratioP1;P1;durP2;ratioP2;P2;SDS_P1;SDS_P2;PMS_P1;PMS_P2;Temp;Humidity;BMP_temperature;BMP_pressure;BME280_temperature;BME280_humidity;BME280_pressure;Samples;Min_cycle;Max_cycle;Signal;HPM_P1;HPM_P2
2023/08/30 00:00:56;;;;;;;16.10;12.70;;;;;;;17.22;92.05;98808.01;220542;1256;140745;-71
2023/08/30 00:06:09;;;;;;;17.40;12.50;;;;;;;17.22;91.84;98809.24;218122;1256;225729;-68
2023/08/30 00:11:14;;;;;;;14.00;11.60;;;;;;;17.23;91.86;98797.50;220663;1255;140564;-69
2023/08/30 00:16:17;;;;;;;15.90;12.30;;;;;;;17.22;91.86;98786.46;219011;1257;140594;-69
2023/08/30 00:21:21;;;;;;;16.00;12.40;;;;;;;17.22;91.88;98775.53;219090;1258;140682;-69
2023/08/30 00:26:24;;;;;;;17.70;11.30;;;;;;;17.20;91.91;98778.36;220530;1257;141334;-69
2023/08/30 00:31:27;;;;;;;16.40;12.20;;;;;;;17.17;91.89;98777.17;218023;1259;141097;-70
2023/08/30 00:36:30;;;;;;;18.30;12.50;;;;;;;17.17;92.03;98773.20;218560;1258;140802;-69
2023/08/30 00:41:33;;;;;;;16.00;12.50;;;;;;;17.11;91.72;98771.34;218142;1257;141126;-67
2023/08/30 00:46:37;;;;;;;17.20;12.70;;;;;;;17.04;91.77;98771.38;218119;1257;141102;-67
2023/08/30 00:51:42;;;;;;;15.30;11.90;;;;;;;17.03;92.20;98768.12;218377;1257;140132;-67
2023/08/30 00:56:51;;;;;;;12.10;10.00;;;;;;;17.03;92.29;98764.89;218228;1255;141234;-66
2023/08/30 01:01:56;;;;;;;15.50;12.20;;;;;;;16.99;92.25;98751.39;218166;1257;140475;-65
2023/08/30 01:06:58;;;;;;;16.60;12.20;;;;;;;16.97;92.43;98742.66;217937;1257;140240;-66
2023/08/30 01:12:05;;;;;;;13.10;9.70;;;;;;;16.94;92.42;98737.87;218668;1258;140897;-67
2023/08/30 01:17:12;;;;;;;15.40;11.90;;;;;;;16.91;92.58;98731.37;218469;1257;139953;-67
2023/08/30 01:22:39;;;;;;;15.80;10.80;;;;;;;16.91;92.62;98730.83;218278;1257;140380;-67
2023/08/30 01:27:46;;;;;;;17.20;12.80;;;;;;;16.83;92.32;98732.80;218818;1259;140436;-68
2023/08/30 01:32:49;;;;;;;17.10;12.30;;;;;;;16.79;92.52;98732.01;217976;1258;140769;-68
2023/08/30 01:37:53;;;;;;;18.70;13.40;;;;;;;16.76;92.82;98727.42;218039;1254;140728;-68
2023/08/30 01:42:58;;;;;;;24.40;14.90;;;;;;;16.77;92.85;98723.38;218026;1259;141439;-67
2023/08/30 01:48:02;;;;;;;37.30;13.80;;;;;;;16.78;93.01;98719.75;218631;1257;139591;-68
2023/08/30 01:53:06;;;;;;;23.50;12.90;;;;;;;16.77;93.18;98723.80;218418;1254;141284;-69
2023/08/30 01:58:10;;;;;;;17.90;14.10;;;;;;;16.79;93.24;98718.91;219224;1255;162112;-71
2023/08/30 02:03:14;;;;;;;24.30;15.20;;;;;;;16.79;92.98;98715.58;219776;1257;140371;-68
2023/08/30 02:08:20;;;;;;;19.50;14.30;;;;;;;16.79;93.06;98707.07;218135;1257;140290;-70
2023/08/30 02:13:27;;;;;;;20.20;14.10;;;;;;;16.80;93.06;98706.95;219430;1257;141931;-70
2023/08/30 02:18:30;;;;;;;;;;;;;;;16.77;92.95;98713.47;218262;1257;140448;-71
2023/08/30 02:23:37;;;;;;;55.50;18.80;;;;;;;16.70;93.03;98715.00;218930;1254;126610;-71
2023/08/30 02:28:39;;;;;;;22.50;16.60;;;;;;;16.68;93.21;98707.40;219579;1258;140804;-69
2023/08/30 02:33:42;;;;;;;22.50;18.10;;;;;;;16.67;93.04;98700.90;218243;1258;141236;-69
2023/08/30 02:38:45;;;;;;;26.70;19.30;;;;;;;16.68;93.26;98693.13;218667;1255;140770;-67
2023/08/30 02:43:50;;;;;;;27.60;19.50;;;;;;;16.68;93.20;98703.10;218063;1259;141144;-69
2023/08/30 02:48:55;;;;;;;26.80;20.00;;;;;;;16.67;93.19;98700.14;218010;1258;140284;-69
2023/08/30 02:53:59;;;;;;;25.90;19.20;;;;;;;16.68;93.54;98709.43;218427;1254;141774;-68
2023/08/30 02:59:02;;;;;;;34.80;20.40;;;;;;;16.68;93.43;98707.88;218007;1254;140448;-70
2023/08/30 03:04:06;;;;;;;29.10;21.00;;;;;;;16.69;93.49;98704.91;218309;1254;141105;-69
2023/08/30 03:09:10;;;;;;;30.20;21.30;;;;;;;16.69;93.39;98707.22;218107;1254;140486;-69
2023/08/30 03:14:13;;;;;;;37.80;23.60;;;;;;;16.64;93.16;98709.88;218021;1258;140727;-68
2023/08/30 03:19:17;;;;;;;39.30;24.40;;;;;;;16.58;93.22;98704.21;219030;1259;140338;-70
2023/08/30 03:24:20;;;;;;;48.00;25.40;;;;;;;16.56;93.24;98701.02;219184;1258;140622;-70
2023/08/30 03:29:22;;;;;;;35.50;24.50;;;;;;;16.52;93.08;98706.70;218160;1259;141199;-70
2023/08/30 03:34:25;;;;;;;38.30;23.10;;;;;;;16.48;93.26;98705.33;217835;1259;141007;-70
2023/08/30 03:39:28;;;;;;;38.80;25.00;;;;;;;16.48;93.41;98702.27;218580;1260;140019;-70
2023/08/30 03:44:32;;;;;;;37.50;21.70;;;;;;;16.48;93.44;98714.27;218551;1259;140192;-69
2023/08/30 03:49:37;;;;;;;33.80;22.60;;;;;;;16.46;93.40;98717.15;218942;1257;141387;-66
2023/08/30 03:54:41;;;;;;;34.40;21.30;;;;;;;16.47;93.57;98716.38;220518;1254;140486;-67
2023/08/30 03:59:45;;;;;;;31.10;19.90;;;;;;;16.48;93.47;98725.83;219659;1259;141167;-68
2023/08/30 04:04:49;;;;;;;30.40;18.00;;;;;;;16.47;93.25;98722.23;220747;1260;140689;-68
2023/08/30 04:09:53;;;;;;;28.20;17.90;;;;;;;16.47;93.23;98721.98;220055;1255;140973;-68
2023/08/30 04:14:56;;;;;;;31.20;18.40;;;;;;;16.42;93.22;98724.65;220738;1254;140922;-69
2023/08/30 04:19:58;;;;;;;31.80;19.10;;;;;;;16.43;93.35;98733.29;220562;1254;141479;-69
2023/08/30 04:25:00;;;;;;;30.80;17.10;;;;;;;16.45;93.35;98728.58;220294;1254;140901;-70
2023/08/30 04:30:04;;;;;;;33.00;17.30;;;;;;;16.45;93.22;98721.64;217906;1254;140569;-69
2023/08/30 04:35:07;;;;;;;33.60;21.50;;;;;;;16.46;93.38;98722.27;219281;1258;140887;-72
2023/08/30 04:40:14;;;;;;;32.80;19.60;;;;;;;16.45;93.20;98718.52;218805;1254;140634;-71
2023/08/30 04:45:17;;;;;;;30.80;19.90;;;;;;;16.45;93.36;98708.63;219286;1254;140038;-67
2023/08/30 04:50:21;;;;;;;31.80;20.80;;;;;;;16.49;93.55;98706.94;218463;1260;140173;-68
2023/08/30 04:55:28;;;;;;;34.00;21.00;;;;;;;16.53;93.41;98711.90;218308;1259;141666;-69
2023/08/30 05:00:32;;;;;;;36.00;21.10;;;;;;;16.57;93.46;98707.27;217953;1254;141226;-69
2023/08/30 05:05:36;;;;;;;34.80;19.80;;;;;;;16.57;93.40;98709.61;218076;1260;141448;-69
2023/08/30 05:10:40;;;;;;;34.10;19.50;;;;;;;16.60;93.58;98713.92;218100;1256;140041;-69
2023/08/30 05:15:44;;;;;;;37.00;21.60;;;;;;;16.60;93.29;98711.29;218162;1260;140020;-67
2023/08/30 05:20:51;;;;;;;33.90;19.60;;;;;;;16.62;93.50;98707.59;218418;1257;140672;-67
2023/08/30 05:26:00;;;;;;;28.80;19.40;;;;;;;16.65;93.39;98721.33;218024;1258;140090;-66
2023/08/30 05:31:06;;;;;;;35.50;21.30;;;;;;;16.65;93.38;98710.52;218808;1259;140471;-69
2023/08/30 05:36:11;;;;;;;;;;;;;;;16.65;93.34;98709.11;218406;1254;140845;-68
2023/08/30 05:41:16;;;;;;;32.10;19.70;;;;;;;16.64;93.24;98716.61;218553;1256;126794;-67
2023/08/30 05:46:20;;;;;;;32.20;21.80;;;;;;;16.63;93.23;98717.64;217958;1260;140576;-68
2023/08/30 05:51:24;;;;;;;30.20;18.30;;;;;;;16.64;93.25;98719.15;218873;1254;141171;-70
2023/08/30 05:56:27;;;;;;;38.90;20.40;;;;;;;16.66;93.33;98715.89;218341;1257;140024;-70
2023/08/30 06:01:30;;;;;;;32.80;19.50;;;;;;;16.66;93.32;98710.17;218790;1255;141523;-69
2023/08/30 06:06:34;;;;;;;36.30;22.30;;;;;;;16.66;93.18;98715.23;218940;1257;140469;-69
2023/08/30 06:11:37;;;;;;;28.50;19.50;;;;;;;16.65;93.17;98719.50;219286;1257;140378;-70
2023/08/30 06:16:44;;;;;;;33.70;19.80;;;;;;;16.68;93.10;98727.86;218612;1254;140316;-71
2023/08/30 06:21:48;;;;;;;35.50;19.90;;;;;;;16.71;93.16;98736.29;218284;1254;140536;-69
2023/08/30 06:27:01;;;;;;;39.00;19.30;;;;;;;16.72;93.02;98739.87;218797;1257;140766;-70
2023/08/30 06:32:11;;;;;;;28.80;17.30;;;;;;;16.72;93.14;98742.35;218082;1258;139664;-69
2023/08/30 06:37:14;;;;;;;24.80;16.90;;;;;;;16.75;93.32;98750.42;218091;1259;140418;-73
2023/08/30 06:42:20;;;;;;;22.60;15.70;;;;;;;16.76;93.17;98757.50;218316;1259;140119;-66
2023/08/30 06:47:28;;;;;;;25.40;17.30;;;;;;;16.78;93.08;98758.17;217604;1258;141313;-69
2023/08/30 06:52:33;;;;;;;26.90;18.20;;;;;;;16.82;93.24;98762.62;218377;1257;141165;-68
2023/08/30 06:57:36;;;;;;;21.00;12.50;;;;;;;16.88;93.33;98762.96;218249;1257;140378;-70
2023/08/30 07:02:44;;;;;;;18.70;12.80;;;;;;;16.94;93.15;98766.84;217778;1257;141906;-68
2023/08/30 07:07:52;;;;;;;22.50;14.30;;;;;;;16.98;93.17;98762.55;217925;1257;140999;-68
2023/08/30 07:12:56;;;;;;;22.00;13.10;;;;;;;17.01;93.03;98768.05;218054;1259;140233;-66
2023/08/30 07:17:59;;;;;;;28.00;13.50;;;;;;;17.02;93.02;98776.44;218618;1256;140846;-66
2023/08/30 07:23:03;;;;;;;17.10;11.50;;;;;;;17.01;92.98;98782.42;217818;1256;140089;-66
2023/08/30 07:28:07;;;;;;;19.40;14.10;;;;;;;17.01;92.93;98788.88;218115;1257;140352;-66
2023/08/30 07:33:11;;;;;;;16.20;12.80;;;;;;;17.01;92.75;98792.55;218612;1257;140540;-66
2023/08/30 07:38:15;;;;;;;14.00;11.60;;;;;;;17.02;92.95;98792.37;218110;1257;140597;-64
2023/08/30 07:43:18;;;;;;;18.00;14.20;;;;;;;17.02;92.90;98791.45;218287;1257;140117;-66
2023/08/30 07:48:21;;;;;;;16.90;13.80;;;;;;;17.02;92.86;98790.54;217889;1255;140169;-66
2023/08/30 07:53:27;;;;;;;14.00;10.90;;;;;;;17.02;92.98;98781.98;217778;1257;234933;-72
2023/08/30 07:58:30;;;;;;;13.70;10.30;;;;;;;17.08;93.04;98781.80;218484;1255;140350;-70
2023/08/30 08:03:33;;;;;;;14.00;9.70;;;;;;;17.14;93.07;98783.53;218841;1257;146435;-68
2023/08/30 08:08:37;;;;;;;11.30;8.50;;;;;;;17.19;93.00;98788.08;217711;1256;140837;-70
2023/08/30 08:13:42;;;;;;;11.00;8.80;;;;;;;17.17;92.68;98783.85;219385;1257;141727;-70
2023/08/30 08:18:45;;;;;;;12.80;9.10;;;;;;;17.18;92.57;98787.77;218313;1257;140002;-69
2023/08/30 08:23:54;;;;;;;11.50;7.60;;;;;;;17.18;92.61;98789.81;217673;1257;141321;-67
2023/08/30 08:28:58;;;;;;;11.70;8.80;;;;;;;17.19;92.59;98793.25;218450;1257;140058;-66
2023/08/30 08:34:12;;;;;;;14.40;10.10;;;;;;;17.24;92.89;98796.50;218017;1260;140019;-65
2023/08/30 08:39:16;;;;;;;13.20;8.50;;;;;;;17.28;92.78;98796.80;218503;1257;141350;-66
2023/08/30 08:44:22;;;;;;;10.10;7.50;;;;;;;17.30;92.52;98801.98;217674;1258;140007;-70
2023/08/30 08:49:29;;;;;;;12.00;8.90;;;;;;;17.29;92.69;98804.48;217877;1257;140829;-68
2023/08/30 08:54:33;;;;;;;10.00;7.60;;;;;;;17.33;92.67;98802.17;218521;1256;140352;-68
2023/08/30 08:59:37;;;;;;;9.80;7.80;;;;;;;17.38;92.76;98802.36;217595;1256;140106;-66
2023/08/30 09:04:41;;;;;;;15.50;8.30;;;;;;;17.43;92.81;98805.31;217430;1260;140182;-66
2023/08/30 09:09:44;;;;;;;11.70;9.50;;;;;;;17.44;92.68;98809.06;217763;1256;140826;-67
2023/08/30 09:14:56;;;;;;;12.60;9.20;;;;;;;17.42;92.57;98796.19;218403;1260;140371;-65
2023/08/30 09:20:09;;;;;;;11.20;8.30;;;;;;;17.47;92.56;98799.77;218980;1257;141536;-65
2023/08/30 09:25:27;;;;;;;13.50;9.40;;;;;;;17.49;92.39;98802.64;217698;1256;140637;-68
2023/08/30 09:30:31;;;;;;;14.20;7.80;;;;;;;17.49;92.32;98800.90;218458;1257;140404;-67
2023/08/30 09:35:44;;;;;;;10.30;8.70;;;;;;;17.47;92.26;98805.09;217919;1257;141009;-67
2023/08/30 09:40:47;;;;;;;8.30;7.30;;;;;;;17.43;92.21;98805.13;218547;1257;140331;-68
2023/08/30 09:45:51;;;;;;;8.20;7.10;;;;;;;17.44;92.43;98806.02;219093;1260;140024;-66
2023/08/30 09:51:01;;;;;;;8.10;7.20;;;;;;;17.48;92.30;98805.99;218459;1256;142205;-67
2023/08/30 09:56:14;;;;;;;9.30;7.20;;;;;;;17.53;92.27;98806.33;219449;1257;142759;-67
2023/08/30 10:01:21;;;;;;;15.70;13.30;;;;;;;17.65;92.34;98805.39;219136;1257;140192;-68
2023/08/30 10:06:30;;;;;;;10.70;8.80;;;;;;;17.86;92.60;98800.71;218072;1257;141236;-65
2023/08/30 10:11:35;;;;;;;12.00;8.80;;;;;;;18.03;92.69;98808.25;217927;1257;140137;-66
2023/08/30 10:16:51;;;;;;;6.90;6.20;;;;;;;18.08;92.34;98809.45;217991;1257;140675;-68
2023/08/30 10:22:14;;;;;;;6.10;5.30;;;;;;;18.10;91.89;98816.10;218893;1256;150841;-67
2023/08/30 10:27:19;;;;;;;5.60;4.80;;;;;;;18.14;91.46;98821.14;217496;1260;140405;-67
2023/08/30 10:32:25;;;;;;;5.60;5.10;;;;;;;18.11;91.06;98817.38;217631;1257;140680;-69
2023/08/30 10:37:43;;;;;;;6.60;6.00;;;;;;;18.03;90.89;98815.73;218079;1259;139881;-69
2023/08/30 10:43:00;;;;;;;7.00;6.00;;;;;;;17.91;90.74;98810.79;218077;1257;140092;-70
2023/08/30 10:48:04;;;;;;;7.30;6.00;;;;;;;17.81;90.68;98815.17;217520;1257;159653;-69
2023/08/30 10:53:14;;;;;;;7.60;6.40;;;;;;;17.77;90.99;98817.30;217173;1257;606964;-73
2023/08/30 10:58:18;;;;;;;7.90;5.90;;;;;;;17.76;90.96;98828.16;218063;1257;140088;-69
2023/08/30 11:03:21;;;;;;;6.00;5.40;;;;;;;17.72;91.07;98832.09;219693;1256;140074;-69
2023/08/30 11:08:26;;;;;;;13.00;5.20;;;;;;;17.69;90.81;98839.49;217942;1256;140966;-66
2023/08/30 11:13:31;;;;;;;6.40;5.60;;;;;;;17.70;91.10;98834.67;218395;1256;139818;-67
2023/08/30 11:18:42;;;;;;;5.20;4.50;;;;;;;17.86;91.24;98829.30;217671;1257;141017;-68
2023/08/30 11:23:50;;;;;;;7.80;5.50;;;;;;;18.06;91.24;98833.74;217507;1258;140995;-68
2023/08/30 11:28:53;;;;;;;7.00;5.20;;;;;;;18.21;91.27;98830.69;217649;1260;140948;-67
2023/08/30 11:34:00;;;;;;;10.00;6.50;;;;;;;18.31;90.98;98825.66;218434;1259;140718;-67
2023/08/30 11:39:08;;;;;;;9.30;7.10;;;;;;;18.49;91.30;98824.04;217613;1257;140328;-68
2023/08/30 11:44:13;;;;;;;9.00;7.30;;;;;;;18.58;90.57;98831.83;217749;1260;142731;-68
2023/08/30 11:49:22;;;;;;;18.30;7.10;;;;;;;18.63;90.48;98820.01;217500;1256;140358;-70
2023/08/30 11:54:28;;;;;;;6.60;5.90;;;;;;;18.71;90.68;98818.54;218431;1256;140950;-69
2023/08/30 11:59:37;;;;;;;5.90;5.30;;;;;;;18.79;90.34;98819.56;218330;1259;140877;-69
2023/08/30 12:04:48;;;;;;;5.90;5.30;;;;;;;18.83;90.02;98820.23;217738;1256;141496;-68
2023/08/30 12:10:05;;;;;;;7.80;7.10;;;;;;;18.74;89.67;98823.64;217501;1256;140051;-68
2023/08/30 12:15:12;;;;;;;14.90;6.40;;;;;;;18.76;89.70;98820.88;219593;1257;140916;-69
2023/08/30 12:20:20;;;;;;;6.70;6.00;;;;;;;18.80;89.41;98812.48;217827;1256;140666;-68
2023/08/30 12:25:26;;;;;;;7.00;6.20;;;;;;;18.76;89.21;98813.22;217935;1260;140026;-69
2023/08/30 12:30:31;;;;;;;9.50;6.80;;;;;;;18.67;88.99;98806.84;218880;1256;139960;-68
2023/08/30 12:35:38;;;;;;;7.10;6.20;;;;;;;18.62;89.23;98810.12;217949;1259;140121;-67
2023/08/30 12:40:42;;;;;;;8.60;7.80;;;;;;;18.49;88.73;98800.96;218245;1256;140358;-68
2023/08/30 12:45:47;;;;;;;7.80;6.50;;;;;;;18.39;88.85;98796.92;217842;1256;141601;-68
2023/08/30 12:50:51;;;;;;;13.60;7.60;;;;;;;18.37;88.83;98794.40;218843;1256;142870;-68
2023/08/30 12:55:57;;;;;;;7.90;7.10;;;;;;;18.42;88.82;98789.59;218486;1260;140974;-68
2023/08/30 13:01:06;;;;;;;7.20;6.50;;;;;;;18.55;89.26;98789.80;217786;1256;139782;-68
2023/08/30 13:06:14;;;;;;;8.00;6.80;;;;;;;18.66;89.00;98791.42;217811;1257;140190;-68
2023/08/30 13:11:18;;;;;;;7.80;5.90;;;;;;;18.66;88.71;98802.70;217674;1257;140691;-69
2023/08/30 13:16:24;;;;;;;9.20;5.80;;;;;;;18.64;88.59;98809.91;217851;1260;139723;-68
2023/08/30 13:21:29;;;;;;;8.20;6.60;;;;;;;18.62;88.35;98807.09;218001;1257;140268;-68
2023/08/30 13:26:44;;;;;;;6.70;6.10;;;;;;;18.76;88.79;98801.73;217903;1259;140832;-67
2023/08/30 13:31:49;;;;;;;7.10;6.20;;;;;;;18.81;88.33;98800.04;217387;1259;140367;-67
2023/08/30 13:36:53;;;;;;;7.20;6.50;;;;;;;18.82;88.33;98810.80;219059;1257;140947;-67
2023/08/30 13:41:57;;;;;;;6.80;6.00;;;;;;;18.84;88.24;98799.67;218110;1256;139801;-67
2023/08/30 13:47:00;;;;;;;14.60;6.30;;;;;;;18.77;88.12;98802.12;218945;1257;140933;-66
2023/08/30 13:52:04;;;;;;;7.80;6.50;;;;;;;18.78;88.32;98806.26;218101;1256;141103;-67
2023/08/30 13:57:09;;;;;;;7.10;6.40;;;;;;;18.70;87.73;98805.23;219305;1256;142130;-68
2023/08/30 14:02:11;;;;;;;7.00;6.40;;;;;;;18.63;87.95;98808.35;217467;1257;139686;-65
2023/08/30 14:07:15;;;;;;;8.70;5.90;;;;;;;18.59;88.10;98817.30;219434;1256;140734;-68
2023/08/30 14:12:18;;;;;;;10.70;7.10;;;;;;;18.54;88.13;98822.96;217840;1257;140207;-66
2023/08/30 14:17:22;;;;;;;10.20;7.00;;;;;;;18.38;87.48;98817.46;217623;1260;140015;-66
2023/08/30 14:22:28;;;;;;;8.20;6.70;;;;;;;18.24;87.29;98815.13;217763;1257;140011;-65
2023/08/30 14:27:31;;;;;;;8.40;7.50;;;;;;;18.10;87.14;98812.06;217706;1257;140103;-67
2023/08/30 14:32:38;;;;;;;7.00;6.30;;;;;;;18.03;87.50;98806.63;217975;1256;150950;-69
2023/08/30 14:37:41;;;;;;;8.70;6.80;;;;;;;17.99;87.69;98808.02;217937;1256;139976;-64
2023/08/30 14:42:45;;;;;;;7.30;6.50;;;;;;;17.95;87.68;98816.63;218149;1256;140224;-63
2023/08/30 14:47:47;;;;;;;8.10;7.30;;;;;;;17.93;87.90;98814.90;218165;1257;140689;-66
2023/08/30 14:52:51;;;;;;;9.40;8.10;;;;;;;17.92;88.37;98812.92;217997;1257;140942;-67
2023/08/30 14:57:53;;;;;;;13.30;9.20;;;;;;;17.97;88.48;98813.64;217839;1257;140990;-66
2023/08/30 15:02:59;;;;;;;9.10;7.60;;;;;;;17.97;88.43;98814.49;217482;1257;142183;-64
2023/08/30 15:08:03;;;;;;;8.00;6.80;;;;;;;18.03;88.39;98819.52;217855;1256;139588;-62
2023/08/30 15:13:06;;;;;;;8.80;8.00;;;;;;;18.06;88.21;98817.23;218141;1256;139805;-66
2023/08/30 15:18:10;;;;;;;8.20;7.40;;;;;;;18.10;88.31;98814.38;217416;1257;140209;-66
2023/08/30 15:23:17;;;;;;;10.40;9.40;;;;;;;18.07;87.93;98821.73;217680;1256;140191;-66
2023/08/30 15:28:25;;;;;;;12.60;7.20;;;;;;;18.04;88.19;98827.70;217548;1256;140401;-66
2023/08/30 15:33:35;;;;;;;9.50;8.30;;;;;;;18.07;88.23;98829.55;218570;1257;140204;-65
2023/08/30 15:38:38;;;;;;;8.00;7.10;;;;;;;18.09;88.17;98846.30;218037;1257;154573;-66
2023/08/30 15:43:40;;;;;;;8.00;6.70;;;;;;;18.08;88.18;98855.95;217953;1257;140010;-64
2023/08/30 15:48:47;;;;;;;;;;;;;;;18.03;88.05;98864.19;219637;1256;141339;-63
2023/08/30 15:53:50;;;;;;;7.10;6.40;;;;;;;17.96;88.37;98865.27;219478;1260;126466;-63
2023/08/30 15:58:53;;;;;;;9.10;7.90;;;;;;;17.96;87.91;98868.34;219402;1257;141008;-66
2023/08/30 16:03:55;;;;;;;6.50;5.90;;;;;;;17.97;88.06;98871.23;218235;1256;142083;-66
2023/08/30 16:09:00;;;;;;;5.60;5.00;;;;;;;17.94;87.84;98881.27;218350;1256;140881;-66
2023/08/30 16:14:04;;;;;;;8.90;5.80;;;;;;;17.91;87.76;98881.77;218035;1260;139856;-65
2023/08/30 16:19:11;;;;;;;5.90;5.30;;;;;;;17.93;87.89;98878.27;218187;1257;139655;-67
2023/08/30 16:24:15;;;;;;;4.60;4.00;;;;;;;17.96;87.77;98875.67;217629;1257;140176;-66
2023/08/30 16:29:19;;;;;;;6.30;5.70;;;;;;;17.96;87.76;98871.99;217785;1260;140035;-65
2023/08/30 16:34:22;;;;;;;6.40;4.70;;;;;;;17.95;87.88;98869.86;217975;1257;140323;-65
2023/08/30 16:39:25;;;;;;;4.80;4.40;;;;;;;17.91;87.78;98865.95;217601;1256;140547;-64
2023/08/30 16:44:29;;;;;;;6.60;4.80;;;;;;;17.87;87.84;98863.84;217524;1260;141813;-65
2023/08/30 16:49:33;;;;;;;5.40;5.00;;;;;;;17.79;88.01;98863.99;217791;1257;140232;-64
2023/08/30 16:54:35;;;;;;;6.40;4.80;;;;;;;17.75;88.10;98861.77;217834;1261;140141;-66
2023/08/30 16:59:38;;;;;;;5.20;4.70;;;;;;;17.69;88.20;98865.37;218391;1259;139786;-67
2023/08/30 17:04:44;;;;;;;5.40;4.90;;;;;;;17.59;87.88;98866.73;218153;1257;139968;-66
2023/08/30 17:09:50;;;;;;;;;;;;;;;17.48;88.13;98871.15;217930;1257;140140;-65
2023/08/30 17:14:55;;;;;;;8.00;5.00;;;;;;;17.37;88.18;98872.48;218314;1257;127268;-64
2023/08/30 17:20:04;;;;;;;5.00;4.60;;;;;;;17.29;88.48;98866.05;217765;1256;139808;-66
2023/08/30 17:25:11;;;;;;;10.00;4.90;;;;;;;17.24;88.55;98866.09;218567;1257;139798;-64
2023/08/30 17:30:16;;;;;;;5.80;5.00;;;;;;;17.20;88.63;98863.09;217604;1260;140928;-65
2023/08/30 17:35:21;;;;;;;4.90;4.50;;;;;;;17.13;88.50;98856.61;218500;1257;139801;-65
2023/08/30 17:40:30;;;;;;;5.10;4.70;;;;;;;17.08;88.72;98857.95;218825;1256;140275;-65
2023/08/30 17:45:39;;;;;;;4.90;4.50;;;;;;;17.02;88.44;98859.36;217678;1261;140275;-65
2023/08/30 17:50:43;;;;;;;21.30;5.30;;;;;;;16.92;88.27;98858.18;218540;1257;140131;-67
2023/08/30 17:55:57;;;;;;;5.10;4.70;;;;;;;16.83;88.17;98862.06;218665;1256;139690;-65
2023/08/30 18:01:02;;;;;;;9.80;5.60;;;;;;;16.78;88.16;98866.38;217674;1257;141128;-64
2023/08/30 18:06:14;;;;;;;12.70;5.00;;;;;;;16.73;88.32;98860.95;218584;1261;141151;-63
2023/08/30 18:11:21;;;;;;;4.00;3.80;;;;;;;16.70;88.41;98864.08;218350;1256;140749;-64
2023/08/30 18:16:25;;;;;;;4.50;3.30;;;;;;;16.66;88.07;98865.70;218225;1261;139928;-64
2023/08/30 18:21:31;;;;;;;3.80;3.40;;;;;;;16.56;87.84;98867.45;218795;1256;139511;-64
2023/08/30 18:26:35;;;;;;;3.00;2.80;;;;;;;16.48;87.84;98869.98;217682;1259;141607;-65
2023/08/30 18:31:46;;;;;;;3.60;3.20;;;;;;;16.39;87.68;98874.67;217891;1256;140550;-66
2023/08/30 18:36:51;;;;;;;3.20;3.00;;;;;;;16.34;87.76;98875.66;217821;1257;140970;-64
2023/08/30 18:41:58;;;;;;;3.10;2.90;;;;;;;16.30;87.90;98876.91;217949;1260;139722;-65
2023/08/30 18:47:02;;;;;;;4.30;3.70;;;;;;;16.25;87.76;98889.73;217792;1256;140204;-65
2023/08/30 18:52:07;;;;;;;5.60;3.90;;;;;;;16.20;87.95;98893.70;217678;1259;164855;-66
2023/08/30 18:57:11;;;;;;;5.40;3.90;;;;;;;16.17;88.21;98897.14;217160;1262;139843;-66
2023/08/30 19:02:17;;;;;;;3.30;3.00;;;;;;;16.15;88.42;98900.59;218920;1257;141688;-66
2023/08/30 19:07:20;;;;;;;3.60;3.20;;;;;;;16.14;88.49;98900.52;218347;1256;140987;-66
2023/08/30 19:12:23;;;;;;;6.70;4.30;;;;;;;16.13;88.50;98894.45;217515;1257;140126;-66
2023/08/30 19:17:32;;;;;;;5.40;3.70;;;;;;;16.10;88.55;98888.90;217772;1257;140267;-66
2023/08/30 19:22:35;;;;;;;5.50;3.90;;;;;;;16.07;88.75;98890.27;217592;1261;140394;-67
2023/08/30 19:27:38;;;;;;;3.50;3.20;;;;;;;16.04;88.70;98887.95;218168;1262;140839;-66
2023/08/30 19:32:44;;;;;;;5.50;3.10;;;;;;;15.98;88.71;98892.92;217773;1257;139841;-66
2023/08/30 19:37:48;;;;;;;4.20;3.80;;;;;;;15.92;88.79;98893.39;217648;1256;139945;-66
2023/08/30 19:42:52;;;;;;;3.70;3.40;;;;;;;15.89;89.03;98896.61;218053;1257;140188;-67
2023/08/30 19:47:56;;;;;;;3.30;3.10;;;;;;;15.89;89.26;98895.98;219138;1257;140618;-67
2023/08/30 19:53:03;;;;;;;5.40;3.30;;;;;;;15.89;89.26;98894.04;219411;1257;140691;-66
2023/08/30 19:58:08;;;;;;;4.00;3.70;;;;;;;15.83;89.07;98897.45;220373;1257;141375;-67
2023/08/30 20:03:11;;;;;;;5.50;4.30;;;;;;;15.78;89.21;98893.70;219861;1260;140445;-68
2023/08/30 20:08:16;;;;;;;7.10;4.20;;;;;;;15.77;89.42;98895.60;218013;1260;140507;-66
2023/08/30 20:13:21;;;;;;;4.50;4.00;;;;;;;15.80;89.65;98892.38;219165;1260;140749;-66
2023/08/30 20:18:25;;;;;;;5.60;4.20;;;;;;;15.82;89.60;98897.24;218658;1256;140747;-67
2023/08/30 20:23:30;;;;;;;3.90;3.50;;;;;;;15.80;89.58;98896.95;217635;1258;139894;-66
2023/08/30 20:28:33;;;;;;;4.80;4.40;;;;;;;15.79;89.81;98906.64;218395;1260;139976;-65
2023/08/30 20:33:37;;;;;;;4.40;3.50;;;;;;;15.74;89.87;98904.59;217937;1257;139687;-65
2023/08/30 20:38:42;;;;;;;;;;;;;;;15.74;89.95;98911.75;217636;1262;140825;-65
2023/08/30 20:43:45;;;;;;;4.90;4.40;;;;;;;15.71;90.29;98903.89;217965;1262;127517;-68
2023/08/30 20:48:52;;;;;;;5.10;4.60;;;;;;;15.68;90.06;98915.02;217693;1257;140723;-68
2023/08/30 20:54:00;;;;;;;5.00;4.60;;;;;;;15.64;90.09;98922.39;218466;1261;141393;-66
2023/08/30 20:59:04;;;;;;;5.90;3.70;;;;;;;15.64;90.33;98923.41;217644;1261;140451;-68
2023/08/30 21:04:07;;;;;;;4.20;3.90;;;;;;;15.63;90.15;98930.73;217702;1261;142419;-68
2023/08/30 21:09:11;;;;;;;4.70;3.40;;;;;;;15.63;90.22;98936.22;217539;1261;141970;-68
2023/08/30 21:14:15;;;;;;;4.30;4.00;;;;;;;15.58;90.12;98939.89;218150;1260;139784;-66
2023/08/30 21:19:17;;;;;;;4.60;3.70;;;;;;;15.59;90.33;98950.58;217579;1257;140536;-65
2023/08/30 21:24:20;;;;;;;7.60;4.30;;;;;;;15.59;90.20;98949.45;217927;1257;140091;-63
2023/08/30 21:29:25;;;;;;;5.30;3.70;;;;;;;15.58;90.24;98952.15;218665;1257;140586;-64
2023/08/30 21:34:29;;;;;;;4.70;4.00;;;;;;;15.56;90.17;98959.41;218180;1260;141767;-66
2023/08/30 21:39:32;;;;;;;3.70;3.40;;;;;;;15.57;90.31;98963.70;219281;1257;140099;-66
2023/08/30 21:44:36;;;;;;;4.10;3.20;;;;;;;15.59;90.27;98966.21;219317;1256;140492;-65
2023/08/30 21:49:43;;;;;;;2.80;2.50;;;;;;;15.61;90.28;98971.11;220233;1259;140453;-65
2023/08/30 21:54:47;;;;;;;2.80;2.60;;;;;;;15.63;90.25;98973.29;220319;1257;140589;-65
2023/08/30 21:59:51;;;;;;;2.90;2.70;;;;;;;15.65;90.14;98969.61;219003;1257;141449;-65
2023/08/30 22:04:54;;;;;;;2.40;2.20;;;;;;;15.65;90.09;98961.82;219691;1259;140767;-65
2023/08/30 22:09:58;;;;;;;2.70;2.50;;;;;;;15.66;90.05;98965.52;217924;1258;140700;-65
2023/08/30 22:15:05;;;;;;;5.40;3.00;;;;;;;15.65;89.92;98962.31;217903;1257;140328;-65
2023/08/30 22:20:15;;;;;;;3.10;2.90;;;;;;;15.61;89.94;98962.36;218267;1260;141198;-65
2023/08/30 22:25:21;;;;;;;3.20;2.80;;;;;;;15.58;90.21;98955.52;218133;1260;141277;-64
2023/08/30 22:30:27;;;;;;;8.50;2.90;;;;;;;15.56;90.33;98954.09;217491;1258;139866;-64
2023/08/30 22:35:31;;;;;;;3.90;3.10;;;;;;;15.54;90.61;98955.13;217624;1257;140229;-63
2023/08/30 22:40:37;;;;;;;2.50;2.30;;;;;;;15.50;90.61;98958.80;217521;1260;140424;-63
2023/08/30 22:45:40;;;;;;;3.70;3.40;;;;;;;15.48;90.67;98956.56;217787;1261;139776;-64
2023/08/30 22:50:44;;;;;;;4.10;2.90;;;;;;;15.47;90.69;98953.36;217549;1261;139840;-64
2023/08/30 22:55:47;;;;;;;6.00;3.40;;;;;;;15.41;90.74;98952.29;216609;1263;1455555;-64
2023/08/30 23:00:50;;;;;;;3.00;2.70;;;;;;;15.36;90.76;98944.08;218331;1257;140317;-64
2023/08/30 23:05:53;;;;;;;4.00;3.60;;;;;;;15.36;90.95;98945.36;217695;1258;140748;-64
2023/08/30 23:10:57;;;;;;;2.70;2.50;;;;;;;15.34;90.95;98945.48;218031;1261;140120;-64